createdAt,value
2018-09-08T00:01:00.723Z,100489.70
2018-09-08T00:06:04.570Z,100490.40
2018-09-08T00:11:08.388Z,100500.36
2018-09-08T00:16:17.330Z,100499.01
2018-09-08T00:21:27.040Z,100505.41
2018-09-08T00:26:33.870Z,100506.27
2018-09-08T00:31:37.693Z,100512.83
2018-09-08T00:36:41.424Z,100513.53
2018-09-08T00:41:45.333Z,100513.67
2018-09-08T00:46:49.059Z,100519.94
2018-09-08T00:51:52.874Z,100525.84
2018-09-08T00:56:57.754Z,100527.45
2018-09-08T01:02:01.528Z,100540.20
2018-09-08T01:07:05.262Z,100547.08
2018-09-08T01:12:09.081Z,100551.13
2018-09-08T01:17:12.939Z,100549.78
2018-09-08T01:22:17.063Z,100550.93
2018-09-08T01:27:20.864Z,100534.72
2018-09-08T01:32:24.681Z,100561.19
2018-09-08T01:37:29.279Z,100565.39
2018-09-08T01:42:33.050Z,100556.43
2018-09-08T01:47:36.877Z,100561.48
2018-09-08T01:52:40.590Z,100562.59
2018-09-08T01:57:44.373Z,100560.55
2018-09-08T02:02:48.315Z,100559.34
2018-09-08T02:07:52.184Z,100570.16
2018-09-08T02:12:55.903Z,100573.85
2018-09-08T02:18:02.601Z,100571.91
2018-09-08T02:23:06.498Z,100577.31
2018-09-08T02:28:10.331Z,100580.81
2018-09-08T02:33:14.091Z,100580.46
2018-09-08T02:38:17.877Z,100584.53
2018-09-08T02:43:21.603Z,100588.88
2018-09-08T02:48:25.354Z,100591.52
2018-09-08T02:53:27.979Z,100601.23
2018-09-08T02:58:30.527Z,100601.38
2018-09-08T03:03:32.984Z,100607.71
2018-09-08T03:08:35.508Z,100609.32
2018-09-08T03:13:38.077Z,100611.95
2018-09-08T03:18:40.626Z,100614.06
2018-09-08T03:23:43.097Z,100622.80
2018-09-08T03:28:45.723Z,100629.34
2018-09-08T03:33:48.228Z,100631.73
2018-09-08T03:38:50.838Z,100636.28
2018-09-08T03:43:53.322Z,100649.28
2018-09-08T03:48:55.847Z,100650.06
2018-09-08T03:53:58.390Z,100662.57
2018-09-08T03:59:01.164Z,100665.05
2018-09-08T04:04:04.926Z,100672.41
2018-09-08T04:09:10.965Z,100684.20
2018-09-08T04:14:15.922Z,100684.84
2018-09-08T04:19:19.763Z,100687.19
2018-09-08T04:24:23.486Z,100684.98
2018-09-08T04:29:27.379Z,100684.41
2018-09-08T04:34:31.174Z,100688.95
2018-09-08T04:39:34.939Z,100696.31
2018-09-08T04:44:38.599Z,100708.73
2018-09-08T04:49:42.363Z,100712.43
2018-09-08T04:54:46.143Z,100718.68
2018-09-08T04:59:50.078Z,100721.02
2018-09-08T05:04:53.893Z,100726.70
2018-09-08T05:09:57.743Z,100726.20
2018-09-08T05:15:06.387Z,100734.05
2018-09-08T05:20:10.263Z,100727.30
2018-09-08T05:25:14.105Z,100737.73
2018-09-08T05:30:17.887Z,100739.69
2018-09-08T05:35:21.745Z,100742.88
2018-09-08T05:40:25.525Z,100753.19
2018-09-08T05:45:29.332Z,100756.88
2018-09-08T05:50:33.118Z,100753.32
2018-09-08T05:55:37.090Z,100753.68
2018-09-08T06:00:40.924Z,100752.58
2018-09-08T06:05:45.273Z,100772.53
2018-09-08T06:10:49.040Z,100774.64
2018-09-08T06:15:52.862Z,100778.31
2018-09-08T06:20:56.606Z,100786.84
2018-09-08T06:26:00.322Z,100787.70
2018-09-08T06:31:03.960Z,100794.56
2018-09-08T06:36:08.316Z,100797.98
2018-09-08T06:41:13.108Z,100802.14
2018-09-08T06:46:17.046Z,100810.95
2018-09-08T06:51:21.182Z,100808.47
2018-09-08T06:56:25.316Z,100810.40
2018-09-08T07:01:29.027Z,100815.98
2018-09-08T07:06:32.888Z,100830.68
2018-09-08T07:11:37.051Z,100832.64
2018-09-08T07:16:40.735Z,100826.00
2018-09-08T07:21:44.588Z,100848.77
2018-09-08T07:26:48.283Z,100839.44
2018-09-08T07:31:52.095Z,100847.05
2018-09-08T07:36:55.801Z,100849.69
2018-09-08T07:41:59.570Z,100849.20
2018-09-08T07:47:03.434Z,100861.75
2018-09-08T07:52:07.187Z,100849.76
2018-09-08T07:57:10.862Z,100855.63
2018-09-08T08:02:14.601Z,100859.78
2018-09-08T08:07:18.366Z,100861.38
2018-09-08T08:12:22.171Z,100874.02
2018-09-08T08:17:25.871Z,100873.45
2018-09-08T08:22:29.602Z,100867.52
2018-09-08T08:27:33.391Z,100876.20
2018-09-08T08:32:37.097Z,100873.78
2018-09-08T08:37:40.803Z,100870.20
2018-09-08T08:42:44.432Z,100877.46
2018-09-08T08:47:48.089Z,100872.35
2018-09-08T08:54:48.503Z,100871.97
2018-09-08T08:59:52.116Z,100872.19
2018-09-08T09:04:56.116Z,100871.46
2018-09-08T09:09:59.710Z,100871.78
2018-09-08T09:15:05.762Z,100868.02
2018-09-08T09:20:20.256Z,100857.89
2018-09-08T09:25:23.898Z,100865.97
2018-09-08T09:30:27.565Z,100863.84
2018-09-08T09:35:31.284Z,100850.60
2018-09-08T09:40:35.056Z,100851.75
2018-09-08T09:45:38.701Z,100851.02
2018-09-08T09:50:42.382Z,100847.05
2018-09-08T09:55:46.058Z,100852.94
2018-09-08T10:01:54.338Z,100844.20
2018-09-08T10:06:58.119Z,100843.03
2018-09-08T10:12:01.939Z,100846.19
2018-09-08T10:17:05.642Z,100839.88
2018-09-08T10:22:09.307Z,100842.88
2018-09-08T10:27:13.012Z,100846.01
2018-09-08T10:32:17.203Z,100834.89
2018-09-08T10:37:20.476Z,100837.20
2018-09-08T10:42:24.166Z,100826.90
2018-09-08T10:47:27.901Z,100836.98
2018-09-08T10:52:39.466Z,100836.98
2018-09-08T10:57:43.143Z,100824.45
2018-09-08T11:02:47.013Z,100831.36
2018-09-08T11:07:50.491Z,100832.47
2018-09-08T11:12:54.187Z,100825.02
2018-09-08T11:17:57.817Z,100831.78
2018-09-08T11:23:01.410Z,100831.23
2018-09-08T11:28:05.086Z,100826.36
2018-09-08T11:33:08.795Z,100824.77
2018-09-08T11:38:12.558Z,100819.55
2018-09-08T11:43:16.235Z,100812.72
2018-09-08T11:48:20.727Z,100804.01
2018-09-08T11:53:24.658Z,100805.69
2018-09-08T11:58:28.331Z,100809.84
2018-09-08T12:03:32.044Z,100800.24
2018-09-08T12:08:35.747Z,100794.45
2018-09-08T12:13:39.386Z,100802.19
2018-09-08T12:18:43.031Z,100803.73
2018-09-08T12:23:46.646Z,100801.94
2018-09-08T12:28:50.520Z,100794.13
2018-09-08T12:33:54.139Z,100793.41
2018-09-08T12:38:57.986Z,100786.46
2018-09-08T12:44:01.620Z,100785.25
2018-09-08T12:49:05.336Z,100781.79
2018-09-08T12:54:09.010Z,100778.58
2018-09-08T12:59:12.823Z,100770.34
2018-09-08T13:04:16.348Z,100761.20
2018-09-08T13:09:20.052Z,100764.03
2018-09-08T13:14:23.756Z,100762.67
2018-09-08T13:19:27.401Z,100755.08
2018-09-08T13:24:31.236Z,100748.59
2018-09-08T13:29:35.044Z,100743.45
2018-09-08T13:34:38.798Z,100733.79
2018-09-08T13:39:43.687Z,100736.11
2018-09-08T13:44:47.355Z,100729.28
2018-09-08T13:49:51.064Z,100711.05
2018-09-08T13:54:54.728Z,100734.67
2018-09-08T13:59:59.668Z,100727.94
2018-09-08T14:05:05.072Z,100725.20
2018-09-08T14:10:09.367Z,100721.28
2018-09-08T14:15:13.150Z,100722.30
2018-09-08T14:20:16.821Z,100719.39
2018-09-08T14:25:20.469Z,100722.91
2018-09-08T14:30:24.099Z,100717.78
2018-09-08T14:35:28.194Z,100717.34
2018-09-08T14:40:31.888Z,100715.45
2018-09-08T14:45:35.552Z,100704.46
2018-09-08T14:50:39.418Z,100706.41
2018-09-08T14:55:43.147Z,100709.47
2018-09-08T15:00:46.789Z,100703.37
2018-09-08T15:05:50.419Z,100703.47
2018-09-08T15:10:57.992Z,100697.95
2018-09-08T15:16:01.659Z,100712.66
2018-09-08T15:21:06.302Z,100707.62
2018-09-08T15:26:10.049Z,100688.52
2018-09-08T15:31:13.745Z,100689.55
2018-09-08T15:36:17.655Z,100684.18
2018-09-08T15:41:21.467Z,100687.51
2018-09-08T15:47:30.064Z,100679.34
2018-09-08T15:52:33.860Z,100688.74
2018-09-08T15:57:37.691Z,100685.66
2018-09-08T16:02:42.001Z,100666.38
2018-09-08T16:07:46.046Z,100665.94
2018-09-08T16:12:49.836Z,100664.63
2018-09-08T16:17:53.646Z,100674.71
2018-09-08T16:22:57.645Z,100664.80
2018-09-08T16:28:01.903Z,100679.30
2018-09-08T16:33:06.151Z,100674.65
2018-09-08T16:38:10.134Z,100671.13
2018-09-08T16:43:13.889Z,100662.42
2018-09-08T16:48:17.745Z,100665.30
2018-09-08T16:53:21.466Z,100668.13
2018-09-08T16:58:25.327Z,100667.80
2018-09-08T17:03:29.061Z,100678.67
2018-09-08T17:08:32.843Z,100677.37
2018-09-08T17:13:36.719Z,100684.00
2018-09-08T17:18:41.117Z,100689.06
2018-09-08T17:23:44.962Z,100675.86
2018-09-08T17:28:48.667Z,100685.08
2018-09-08T17:33:53.099Z,100681.58
2018-09-08T17:38:57.214Z,100679.84
2018-09-08T17:44:01.063Z,100682.94
2018-09-08T17:49:04.926Z,100687.95
2018-09-08T17:54:08.677Z,100688.96
2018-09-08T17:59:12.376Z,100691.52
2018-09-08T18:04:16.041Z,100687.28
2018-09-08T18:09:19.680Z,100699.04
2018-09-08T18:14:23.416Z,100702.61
2018-09-08T18:19:27.176Z,100716.51
2018-09-08T18:24:30.920Z,100717.48
2018-09-08T18:29:34.658Z,100731.34
2018-09-08T18:34:38.502Z,100731.63
2018-09-08T18:39:42.357Z,100743.76
2018-09-08T18:44:46.390Z,100737.64
2018-09-08T18:49:50.942Z,100737.73
2018-09-08T18:54:55.401Z,100739.06
2018-09-08T18:59:59.139Z,100741.78
2018-09-08T19:05:08.325Z,100748.28
2018-09-08T19:10:12.023Z,100756.75
2018-09-08T19:15:16.545Z,100754.61
2018-09-08T19:20:25.450Z,100756.45
2018-09-08T19:25:29.327Z,100759.37
2018-09-08T19:30:32.986Z,100762.98
2018-09-08T19:35:40.360Z,100761.05
2018-09-08T19:40:47.030Z,100767.19
2018-09-08T19:45:50.742Z,100777.73
2018-09-08T19:50:54.458Z,100786.31
2018-09-08T19:55:58.899Z,100795.41
2018-09-08T20:01:02.580Z,100799.56
2018-09-08T20:06:06.443Z,100793.20
2018-09-08T20:11:13.364Z,100798.83
2018-09-08T20:16:17.027Z,100799.67
2018-09-08T20:21:20.647Z,100802.74
2018-09-08T20:26:24.411Z,100808.86
2018-09-08T20:31:28.963Z,100808.00
2018-09-08T20:36:32.733Z,100804.68
2018-09-08T20:41:36.596Z,100807.15
2018-09-08T20:46:40.271Z,100805.28
2018-09-08T20:51:44.915Z,100799.89
2018-09-08T20:56:48.600Z,100797.13
2018-09-08T21:01:52.298Z,100798.57
2018-09-08T21:06:56.015Z,100788.23
2018-09-08T21:11:59.742Z,100780.41
2018-09-08T21:17:04.567Z,100781.62
2018-09-08T21:22:08.565Z,100777.17
2018-09-08T21:27:12.214Z,100777.16
2018-09-08T21:32:15.998Z,100776.41
2018-09-08T21:37:20.047Z,100781.53
2018-09-08T21:42:23.824Z,100783.27
2018-09-08T21:47:27.498Z,100794.28
2018-09-08T21:52:31.174Z,100796.84
2018-09-08T21:57:34.994Z,100792.94
2018-09-08T22:02:38.747Z,100787.77
2018-09-08T22:07:42.585Z,100791.45
2018-09-08T22:12:46.221Z,100777.97
2018-09-08T22:17:50.072Z,100765.48
2018-09-08T22:22:53.767Z,100762.28
2018-09-08T22:27:57.519Z,100764.12
2018-09-08T22:33:01.231Z,100755.41
2018-09-08T22:38:04.986Z,100757.02
2018-09-08T22:43:08.633Z,100768.66
2018-09-08T22:48:12.309Z,100773.07
2018-09-08T22:53:15.954Z,100775.41
2018-09-08T22:58:19.638Z,100775.55
2018-09-08T23:03:23.323Z,100775.90
2018-09-08T23:08:26.947Z,100777.38
2018-09-08T23:13:30.668Z,100787.05
2018-09-08T23:18:34.429Z,100785.20
2018-09-08T23:23:38.548Z,100780.66
2018-09-08T23:28:42.206Z,100777.38
2018-09-08T23:33:45.905Z,100773.70
2018-09-08T23:38:49.541Z,100798.10
2018-09-08T23:43:53.283Z,100798.83
2018-09-08T23:48:56.997Z,100811.19
2018-09-08T23:54:00.670Z,100810.97
2018-09-08T23:59:04.375Z,100806.06
